CXA110 NQPR-VNLK
Flight info
| Callsign | CXA110 |
|---|---|
| Flight time | N/A |
| Altitude | 18000 |
| Route | TUMLI |
| Aircraft | TBM9/L-VGD/A |
Departure
| Time | N/A |
|---|---|
| Airport | NQPR |
Arrival
| Time | 2025-01-02 15:09 |
|---|---|
| Airport | Tenzing-Hillary Airport (VNLK) |
| Time | Latitude | Longitude | Altitude | Speed | Heading |
|---|---|---|---|---|---|
| 2025-01-02 14:26 | 27.39502 | 89.42995 | 7288 ft | 0 kts | 330° |
| 2025-01-02 14:26 | 27.39824 | 89.42781 | 7301 ft | 73 kts | 328° |
| 2025-01-02 14:27 | 27.40940 | 89.42006 | 7799 ft | 100 kts | 330° |
| 2025-01-02 14:27 | 27.42014 | 89.40976 | 8542 ft | 106 kts | 310° |
| 2025-01-02 14:28 | 27.43031 | 89.39623 | 9248 ft | 122 kts | 310° |
| 2025-01-02 14:28 | 27.44093 | 89.37890 | 10018 ft | 149 kts | 300° |
| 2025-01-02 14:29 | 27.45537 | 89.34249 | 11145 ft | 189 kts | 290° |
| 2025-01-02 14:30 | 27.46444 | 89.31320 | 11929 ft | 209 kts | 290° |
| 2025-01-02 14:30 | 27.46901 | 89.29792 | 12546 ft | 183 kts | 287° |
| 2025-01-02 14:30 | 27.47713 | 89.27039 | 13493 ft | 194 kts | 290° |
| 2025-01-02 14:31 | 27.48695 | 89.24049 | 14185 ft | 212 kts | 290° |
| 2025-01-02 14:31 | 27.48818 | 89.20667 | 14849 ft | 221 kts | 269° |
| 2025-01-02 14:32 | 27.48744 | 89.17125 | 15514 ft | 232 kts | 269° |
| 2025-01-02 14:32 | 27.48473 | 89.13480 | 16181 ft | 236 kts | 261° |
| 2025-01-02 14:33 | 27.47441 | 89.08007 | 17218 ft | 240 kts | 260° |
| 2025-01-02 14:34 | 27.46729 | 89.04316 | 17922 ft | 243 kts | 260° |
| 2025-01-02 14:34 | 27.46350 | 89.02441 | 18112 ft | 251 kts | 260° |
| 2025-01-02 14:34 | 27.45542 | 88.98444 | 18114 ft | 270 kts | 259° |
| 2025-01-02 14:35 | 27.44711 | 88.94276 | 18123 ft | 276 kts | 260° |
| 2025-01-02 14:35 | 27.43858 | 88.90025 | 18118 ft | 279 kts | 260° |
| 2025-01-02 14:36 | 27.42996 | 88.85727 | 18121 ft | 283 kts | 260° |
| 2025-01-02 14:36 | 27.42136 | 88.81389 | 18121 ft | 284 kts | 260° |
| 2025-01-02 14:37 | 27.40984 | 88.75590 | 18126 ft | 286 kts | 260° |
| 2025-01-02 14:37 | 27.40551 | 88.73403 | 18127 ft | 286 kts | 260° |
| 2025-01-02 14:38 | 27.39681 | 88.69016 | 18124 ft | 288 kts | 260° |
| 2025-01-02 14:38 | 27.38805 | 88.64621 | 18126 ft | 287 kts | 260° |
| 2025-01-02 14:39 | 27.37491 | 88.58068 | 18120 ft | 285 kts | 260° |
| 2025-01-02 14:40 | 27.36612 | 88.53719 | 18124 ft | 285 kts | 260° |
| 2025-01-02 14:40 | 27.35732 | 88.49379 | 18123 ft | 285 kts | 260° |
| 2025-01-02 14:40 | 27.35289 | 88.47207 | 18125 ft | 285 kts | 260° |
| 2025-01-02 14:41 | 27.33961 | 88.40717 | 18127 ft | 283 kts | 260° |
| 2025-01-02 14:42 | 27.33072 | 88.36389 | 18121 ft | 284 kts | 260° |
| 2025-01-02 14:42 | 27.32185 | 88.32080 | 18125 ft | 281 kts | 260° |
| 2025-01-02 14:43 | 27.31304 | 88.27830 | 18128 ft | 281 kts | 260° |
| 2025-01-02 14:43 | 27.30416 | 88.23545 | 18129 ft | 282 kts | 260° |
| 2025-01-02 14:44 | 27.29898 | 88.19200 | 18132 ft | 281 kts | 269° |
| 2025-01-02 14:44 | 27.29721 | 88.14815 | 18126 ft | 281 kts | 270° |
| 2025-01-02 14:44 | 27.29643 | 88.12621 | 18127 ft | 280 kts | 270° |
| 2025-01-02 14:45 | 27.29423 | 88.06042 | 18133 ft | 281 kts | 270° |
| 2025-01-02 14:46 | 27.29286 | 88.01659 | 18134 ft | 281 kts | 270° |
| 2025-01-02 14:46 | 27.29157 | 87.97245 | 18139 ft | 283 kts | 270° |
| 2025-01-02 14:47 | 27.29033 | 87.92818 | 18141 ft | 283 kts | 270° |
| 2025-01-02 14:47 | 27.28920 | 87.88379 | 18140 ft | 284 kts | 270° |
| 2025-01-02 14:48 | 27.28814 | 87.83952 | 18136 ft | 283 kts | 270° |
| 2025-01-02 14:48 | 27.28764 | 87.81742 | 18135 ft | 283 kts | 270° |
| 2025-01-02 14:49 | 27.28610 | 87.75120 | 18137 ft | 283 kts | 270° |
| 2025-01-02 14:49 | 27.28504 | 87.70696 | 18139 ft | 284 kts | 270° |
| 2025-01-02 14:50 | 27.28394 | 87.66259 | 18136 ft | 284 kts | 270° |
| 2025-01-02 14:50 | 27.28280 | 87.61826 | 18136 ft | 284 kts | 270° |
| 2025-01-02 14:51 | 27.28163 | 87.57403 | 18141 ft | 283 kts | 270° |
| 2025-01-02 14:51 | 27.28046 | 87.52980 | 18142 ft | 283 kts | 270° |
| 2025-01-02 14:51 | 27.27987 | 87.50769 | 18141 ft | 284 kts | 270° |
| 2025-01-02 14:52 | 27.27867 | 87.46324 | 18144 ft | 285 kts | 270° |
| 2025-01-02 14:53 | 27.27688 | 87.39625 | 18144 ft | 286 kts | 270° |
| 2025-01-02 14:53 | 27.27568 | 87.35151 | 18143 ft | 286 kts | 270° |
| 2025-01-02 14:54 | 27.27445 | 87.30704 | 18143 ft | 287 kts | 270° |
| 2025-01-02 14:54 | 27.27318 | 87.26227 | 18142 ft | 287 kts | 270° |
| 2025-01-02 14:54 | 27.27254 | 87.23987 | 18112 ft | 288 kts | 270° |
| 2025-01-02 14:55 | 27.27127 | 87.19529 | 17498 ft | 282 kts | 270° |
| 2025-01-02 14:55 | 27.27013 | 87.15163 | 16895 ft | 278 kts | 270° |
| 2025-01-02 14:56 | 27.26907 | 87.10838 | 16308 ft | 276 kts | 270° |
| 2025-01-02 14:57 | 27.26791 | 87.04418 | 15452 ft | 271 kts | 270° |
| 2025-01-02 14:57 | 27.26739 | 87.00193 | 14895 ft | 270 kts | 270° |
| 2025-01-02 14:58 | 27.26700 | 86.95985 | 14342 ft | 267 kts | 270° |
| 2025-01-02 14:58 | 27.26688 | 86.93903 | 14074 ft | 266 kts | 270° |
| 2025-01-02 14:58 | 27.26655 | 86.89743 | 13479 ft | 266 kts | 270° |
| 2025-01-02 14:59 | 27.26668 | 86.85581 | 12779 ft | 266 kts | 271° |
| 2025-01-02 14:59 | 27.26798 | 86.81426 | 12100 ft | 266 kts | 274° |
| 2025-01-02 15:00 | 27.27187 | 86.77315 | 11439 ft | 265 kts | 278° |
| 2025-01-02 15:01 | 27.29415 | 86.71769 | 10514 ft | 259 kts | 305° |
| 2025-01-02 15:01 | 27.31875 | 86.69044 | 10499 ft | 243 kts | 325° |
| 2025-01-02 15:02 | 27.35095 | 86.68305 | 10498 ft | 240 kts | 0° |
| 2025-01-02 15:02 | 27.38421 | 86.68468 | 10490 ft | 239 kts | 1° |
| 2025-01-02 15:03 | 27.41743 | 86.68684 | 10491 ft | 239 kts | 0° |
| 2025-01-02 15:03 | 27.45032 | 86.68784 | 10489 ft | 237 kts | 359° |
| 2025-01-02 15:03 | 27.46698 | 86.68815 | 10509 ft | 237 kts | 359° |
| 2025-01-02 15:04 | 27.49962 | 86.68868 | 10506 ft | 219 kts | 359° |
| 2025-01-02 15:05 | 27.54155 | 86.68903 | 10521 ft | 198 kts | 359° |
| 2025-01-02 15:05 | 27.56886 | 86.68930 | 10504 ft | 193 kts | 1° |
| 2025-01-02 15:06 | 27.59581 | 86.69157 | 10505 ft | 194 kts | 5° |
| 2025-01-02 15:06 | 27.62131 | 86.69674 | 10320 ft | 169 kts | 9° |
| 2025-01-02 15:07 | 27.64243 | 86.70063 | 9910 ft | 140 kts | 8° |
| 2025-01-02 15:07 | 27.66091 | 86.70550 | 9328 ft | 137 kts | 12° |
| 2025-01-02 15:07 | 27.66969 | 86.70900 | 9084 ft | 131 kts | 26° |
| 2025-01-02 15:08 | 27.68223 | 86.72040 | 8919 ft | 103 kts | 54° |
| 2025-01-02 15:09 | 27.68634 | 86.72863 | 9237 ft | 0 kts | 63° |
| 2025-01-02 15:09 | 27.39502 | 89.42995 | 7286 ft | 0 kts | 330° |
| 2025-01-02 15:11 | 27.39622 | 89.42918 | 7290 ft | 45 kts | 330° |
| 2025-01-02 15:11 | 27.40634 | 89.42216 | 7556 ft | 106 kts | 327° |
| 2025-01-02 15:12 | 27.41959 | 89.41225 | 8270 ft | 122 kts | 326° |
| 2025-01-02 15:13 | 27.43798 | 89.38918 | 9433 ft | 153 kts | 289° |
| 2025-01-02 15:13 | 27.43991 | 89.37703 | 9845 ft | 165 kts | 261° |
| 2025-01-02 15:13 | 27.43080 | 89.35198 | 10637 ft | 182 kts | 258° |
| 2025-01-02 15:14 | 27.42634 | 89.32273 | 11528 ft | 187 kts | 264° |
| 2025-01-02 15:15 | 27.42131 | 89.28637 | 13301 ft | 169 kts | 260° |
| 2025-01-02 15:15 | 27.41697 | 89.25896 | 14063 ft | 186 kts | 260° |
| 2025-01-02 15:16 | 27.41218 | 89.22900 | 14771 ft | 204 kts | 260° |
| 2025-01-02 15:16 | 27.40946 | 89.21312 | 15121 ft | 209 kts | 260° |
| 2025-01-02 15:17 | 27.40069 | 89.16428 | 16203 ft | 216 kts | 260° |
| 2025-01-02 15:17 | 27.39434 | 89.13029 | 16958 ft | 228 kts | 260° |
| 2025-01-02 15:18 | 27.38749 | 89.09487 | 17704 ft | 233 kts | 260° |
| 2025-01-02 15:18 | 27.38018 | 89.05855 | 18124 ft | 248 kts | 260° |
| 2025-01-02 15:19 | 27.37238 | 89.01906 | 18131 ft | 270 kts | 260° |
| 2025-01-02 15:19 | 27.36819 | 88.99790 | 18127 ft | 277 kts | 259° |
| 2025-01-02 15:19 | 27.35973 | 88.95543 | 18125 ft | 281 kts | 260° |
| 2025-01-02 15:20 | 27.35118 | 88.91227 | 18123 ft | 282 kts | 260° |
| 2025-01-02 15:21 | 27.33826 | 88.84737 | 18133 ft | 285 kts | 260° |
| 2025-01-02 15:21 | 27.32957 | 88.80390 | 18126 ft | 287 kts | 260° |
| 2025-01-02 15:21 | 27.32518 | 88.78180 | 18128 ft | 287 kts | 260° |
| 2025-01-02 15:22 | 27.31651 | 88.73838 | 18128 ft | 286 kts | 260° |
| 2025-01-02 15:22 | 27.30780 | 88.69478 | 18131 ft | 281 kts | 260° |
| 2025-01-02 15:23 | 27.29912 | 88.65177 | 18124 ft | 283 kts | 259° |
| 2025-01-02 15:23 | 27.29051 | 88.60891 | 18131 ft | 284 kts | 260° |
| 2025-01-02 15:24 | 27.28166 | 88.56546 | 18125 ft | 284 kts | 260° |
| 2025-01-02 15:25 | 27.26864 | 88.50096 | 18129 ft | 283 kts | 260° |
| 2025-01-02 15:25 | 27.26422 | 88.47922 | 18124 ft | 283 kts | 260° |
| 2025-01-02 15:25 | 27.25555 | 88.43618 | 18126 ft | 283 kts | 260° |
| 2025-01-02 15:26 | 27.24244 | 88.37156 | 18122 ft | 281 kts | 260° |
| 2025-01-02 15:27 | 27.23375 | 88.32872 | 18128 ft | 282 kts | 260° |
| 2025-01-02 15:27 | 27.22502 | 88.28573 | 18127 ft | 283 kts | 259° |
| 2025-01-02 15:27 | 27.22071 | 88.26435 | 18129 ft | 282 kts | 260° |
| 2025-01-02 15:28 | 27.21352 | 88.22851 | 18131 ft | 282 kts | 260° |
| 2025-01-02 15:29 | 27.20063 | 88.16378 | 18132 ft | 283 kts | 259° |
| 2025-01-02 15:29 | 27.19229 | 88.12092 | 18135 ft | 282 kts | 260° |
| 2025-01-02 15:30 | 27.18395 | 88.07774 | 18135 ft | 283 kts | 260° |
| 2025-01-02 15:30 | 27.17570 | 88.03451 | 18134 ft | 284 kts | 260° |
| 2025-01-02 15:30 | 27.17157 | 88.01268 | 18136 ft | 284 kts | 260° |
| 2025-01-02 15:31 | 27.16341 | 87.96917 | 18134 ft | 286 kts | 260° |
| 2025-01-02 15:31 | 27.15527 | 87.92530 | 18141 ft | 287 kts | 260° |
| 2025-01-02 15:32 | 27.14718 | 87.88136 | 18135 ft | 287 kts | 260° |
| 2025-01-02 15:33 | 27.13523 | 87.81544 | 18138 ft | 288 kts | 260° |
| 2025-01-02 15:33 | 27.12725 | 87.77171 | 18140 ft | 287 kts | 260° |
| 2025-01-02 15:34 | 27.11911 | 87.72765 | 18139 ft | 287 kts | 260° |
| 2025-01-02 15:34 | 27.11099 | 87.68393 | 18138 ft | 287 kts | 260° |
| 2025-01-02 15:34 | 27.10684 | 87.66179 | 18137 ft | 286 kts | 260° |
| 2025-01-02 15:35 | 27.09869 | 87.61834 | 18144 ft | 287 kts | 260° |
| 2025-01-02 15:35 | 27.09036 | 87.57420 | 18142 ft | 288 kts | 260° |
| 2025-01-02 15:36 | 27.08201 | 87.53063 | 18145 ft | 287 kts | 260° |
| 2025-01-02 15:37 | 27.06933 | 87.46515 | 18142 ft | 287 kts | 260° |
| 2025-01-02 15:37 | 27.06074 | 87.42134 | 18146 ft | 287 kts | 260° |
| 2025-01-02 15:38 | 27.05224 | 87.37777 | 18142 ft | 287 kts | 260° |
| 2025-01-02 15:38 | 27.04368 | 87.33410 | 18139 ft | 287 kts | 260° |
| 2025-01-02 15:38 | 27.04082 | 87.31196 | 18140 ft | 285 kts | 274° |
| 2025-01-02 15:39 | 27.05025 | 87.26922 | 18139 ft | 282 kts | 289° |
| 2025-01-02 15:39 | 27.06289 | 87.22732 | 17737 ft | 295 kts | 290° |
| 2025-01-02 15:40 | 27.07605 | 87.18492 | 16837 ft | 281 kts | 290° |
| 2025-01-02 15:41 | 27.09537 | 87.12408 | 15525 ft | 271 kts | 290° |
| 2025-01-02 15:41 | 27.10821 | 87.08477 | 14690 ft | 268 kts | 290° |
| 2025-01-02 15:41 | 27.11472 | 87.06513 | 14281 ft | 265 kts | 290° |
| 2025-01-02 15:42 | 27.12758 | 87.02671 | 13410 ft | 261 kts | 290° |
| 2025-01-02 15:42 | 27.14027 | 86.98876 | 12692 ft | 254 kts | 290° |
| 2025-01-02 15:43 | 27.15248 | 86.95225 | 12211 ft | 253 kts | 290° |
| 2025-01-02 15:43 | 27.16525 | 86.91389 | 11731 ft | 266 kts | 290° |
| 2025-01-02 15:44 | 27.17818 | 86.87468 | 11275 ft | 269 kts | 290° |
| 2025-01-02 15:44 | 27.19120 | 86.83503 | 10809 ft | 269 kts | 290° |
| 2025-01-02 15:45 | 27.21032 | 86.77732 | 10663 ft | 255 kts | 295° |
| 2025-01-02 15:46 | 27.23228 | 86.74692 | 10657 ft | 255 kts | 326° |
| 2025-01-02 15:46 | 27.26308 | 86.72733 | 10523 ft | 258 kts | 330° |
| 2025-01-02 15:47 | 27.29466 | 86.70831 | 10504 ft | 255 kts | 336° |
| 2025-01-02 15:47 | 27.32886 | 86.69765 | 10503 ft | 257 kts | 345° |
| 2025-01-02 15:47 | 27.34646 | 86.69317 | 10502 ft | 262 kts | 349° |
| 2025-01-02 15:48 | 27.38301 | 86.68988 | 10505 ft | 267 kts | 358° |
| 2025-01-02 15:49 | 27.43900 | 86.69128 | 10499 ft | 268 kts | 0° |
| 2025-01-02 15:49 | 27.47622 | 86.69237 | 10504 ft | 268 kts | 0° |
| 2025-01-02 15:50 | 27.51338 | 86.69330 | 10497 ft | 267 kts | 0° |
| 2025-01-02 15:50 | 27.55058 | 86.69397 | 10508 ft | 258 kts | 0° |
| 2025-01-02 15:51 | 27.58308 | 86.69430 | 10504 ft | 205 kts | 0° |
| 2025-01-02 15:51 | 27.59588 | 86.69455 | 10356 ft | 173 kts | 0° |
| 2025-01-02 15:51 | 27.61837 | 86.69575 | 9844 ft | 138 kts | 4° |
| 2025-01-02 15:52 | 27.63656 | 86.69887 | 9818 ft | 145 kts | 11° |
| 2025-01-02 15:53 | 27.66439 | 86.70705 | 9465 ft | 133 kts | 19° |
| 2025-01-02 15:53 | 27.67995 | 86.71818 | 9273 ft | 131 kts | 43° |
| 2025-01-02 15:54 | 27.68804 | 86.73190 | 9390 ft | 0 kts | 62° |